sensor_id;sensor_type;location;lat;lon;timestamp;P1;durP1;ratioP1;P2;durP2;ratioP2
76818;SDS011;65772;51.096;17.006;2022-12-05T00:00:35;40.70;;;17.70;;
76818;SDS011;65772;51.096;17.006;2022-12-05T00:03:05;43.50;;;18.40;;
76818;SDS011;65772;51.096;17.006;2022-12-05T00:05:39;40.80;;;18.00;;
76818;SDS011;65772;51.096;17.006;2022-12-05T00:08:10;47.90;;;17.50;;
76818;SDS011;65772;51.096;17.006;2022-12-05T00:10:41;37.10;;;16.60;;
76818;SDS011;65772;51.096;17.006;2022-12-05T00:13:11;43.00;;;17.80;;
76818;SDS011;65772;51.096;17.006;2022-12-05T00:15:42;43.90;;;17.80;;
76818;SDS011;65772;51.096;17.006;2022-12-05T00:18:12;43.90;;;19.80;;
76818;SDS011;65772;51.096;17.006;2022-12-05T00:20:45;41.60;;;18.90;;
76818;SDS011;65772;51.096;17.006;2022-12-05T00:23:16;39.80;;;17.70;;
76818;SDS011;65772;51.096;17.006;2022-12-05T00:25:46;34.80;;;15.80;;
76818;SDS011;65772;51.096;17.006;2022-12-05T00:28:16;41.10;;;18.30;;
76818;SDS011;65772;51.096;17.006;2022-12-05T00:30:47;38.50;;;17.50;;
76818;SDS011;65772;51.096;17.006;2022-12-05T00:33:17;36.80;;;15.10;;
76818;SDS011;65772;51.096;17.006;2022-12-05T00:35:48;38.20;;;16.90;;
76818;SDS011;65772;51.096;17.006;2022-12-05T00:38:18;40.00;;;18.00;;
76818;SDS011;65772;51.096;17.006;2022-12-05T00:40:49;38.50;;;18.70;;
76818;SDS011;65772;51.096;17.006;2022-12-05T00:43:19;39.90;;;19.30;;
76818;SDS011;65772;51.096;17.006;2022-12-05T00:45:50;38.70;;;17.00;;
76818;SDS011;65772;51.096;17.006;2022-12-05T00:48:20;47.40;;;19.90;;
76818;SDS011;65772;51.096;17.006;2022-12-05T00:50:51;42.90;;;18.20;;
76818;SDS011;65772;51.096;17.006;2022-12-05T00:53:29;45.80;;;19.30;;
76818;SDS011;65772;51.096;17.006;2022-12-05T00:56:02;45.00;;;18.10;;
76818;SDS011;65772;51.096;17.006;2022-12-05T00:58:34;39.70;;;18.30;;
76818;SDS011;65772;51.096;17.006;2022-12-05T01:01:06;40.40;;;18.80;;
76818;SDS011;65772;51.096;17.006;2022-12-05T01:03:38;38.30;;;18.70;;
76818;SDS011;65772;51.096;17.006;2022-12-05T01:06:09;37.50;;;17.10;;
76818;SDS011;65772;51.096;17.006;2022-12-05T01:08:41;38.80;;;17.60;;
76818;SDS011;65772;51.096;17.006;2022-12-05T01:11:13;40.00;;;19.20;;
76818;SDS011;65772;51.096;17.006;2022-12-05T01:13:45;56.40;;;26.20;;
76818;SDS011;65772;51.096;17.006;2022-12-05T01:16:16;51.00;;;25.10;;
76818;SDS011;65772;51.096;17.006;2022-12-05T01:18:49;40.90;;;19.40;;
76818;SDS011;65772;51.096;17.006;2022-12-05T01:21:21;38.30;;;18.10;;
76818;SDS011;65772;51.096;17.006;2022-12-05T01:23:52;43.90;;;20.40;;
76818;SDS011;65772;51.096;17.006;2022-12-05T01:26:23;46.40;;;19.90;;
76818;SDS011;65772;51.096;17.006;2022-12-05T01:28:53;48.30;;;19.00;;
76818;SDS011;65772;51.096;17.006;2022-12-05T01:31:25;56.70;;;23.40;;
76818;SDS011;65772;51.096;17.006;2022-12-05T01:33:58;47.80;;;21.00;;
76818;SDS011;65772;51.096;17.006;2022-12-05T01:36:30;53.40;;;21.80;;
76818;SDS011;65772;51.096;17.006;2022-12-05T01:39:00;45.10;;;21.60;;
76818;SDS011;65772;51.096;17.006;2022-12-05T01:41:32;42.70;;;20.80;;
76818;SDS011;65772;51.096;17.006;2022-12-05T01:46:35;42.60;;;18.80;;
76818;SDS011;65772;51.096;17.006;2022-12-05T01:49:08;36.90;;;19.10;;
76818;SDS011;65772;51.096;17.006;2022-12-05T01:51:45;44.50;;;19.90;;
76818;SDS011;65772;51.096;17.006;2022-12-05T01:54:17;41.60;;;18.80;;
76818;SDS011;65772;51.096;17.006;2022-12-05T01:56:51;39.90;;;18.10;;
76818;SDS011;65772;51.096;17.006;2022-12-05T01:59:26;40.10;;;17.70;;
76818;SDS011;65772;51.096;17.006;2022-12-05T02:02:00;40.80;;;17.10;;
76818;SDS011;65772;51.096;17.006;2022-12-05T02:04:31;39.70;;;17.30;;
76818;SDS011;65772;51.096;17.006;2022-12-05T02:07:06;35.50;;;16.00;;
76818;SDS011;65772;51.096;17.006;2022-12-05T02:09:36;37.50;;;16.80;;
76818;SDS011;65772;51.096;17.006;2022-12-05T02:12:07;46.70;;;18.10;;
76818;SDS011;65772;51.096;17.006;2022-12-05T02:14:39;42.20;;;18.00;;
76818;SDS011;65772;51.096;17.006;2022-12-05T02:17:20;45.10;;;19.00;;
76818;SDS011;65772;51.096;17.006;2022-12-05T02:20:04;39.90;;;18.60;;
76818;SDS011;65772;51.096;17.006;2022-12-05T02:22:50;43.50;;;18.50;;
76818;SDS011;65772;51.096;17.006;2022-12-05T02:25:54;41.10;;;18.80;;
76818;SDS011;65772;51.096;17.006;2022-12-05T02:28:50;36.80;;;17.80;;
76818;SDS011;65772;51.096;17.006;2022-12-05T02:31:39;41.90;;;18.50;;
76818;SDS011;65772;51.096;17.006;2022-12-05T02:34:17;39.00;;;18.00;;
76818;SDS011;65772;51.096;17.006;2022-12-05T02:36:55;35.90;;;17.60;;
76818;SDS011;65772;51.096;17.006;2022-12-05T02:39:31;36.00;;;16.10;;
76818;SDS011;65772;51.096;17.006;2022-12-05T02:42:10;39.30;;;18.10;;
76818;SDS011;65772;51.096;17.006;2022-12-05T02:44:46;38.70;;;18.10;;
76818;SDS011;65772;51.096;17.006;2022-12-05T02:47:20;45.40;;;20.00;;
76818;SDS011;65772;51.096;17.006;2022-12-05T02:49:55;41.00;;;18.40;;
76818;SDS011;65772;51.096;17.006;2022-12-05T02:52:27;42.00;;;19.80;;
76818;SDS011;65772;51.096;17.006;2022-12-05T02:55:01;46.60;;;20.90;;
76818;SDS011;65772;51.096;17.006;2022-12-05T02:57:35;45.80;;;20.10;;
76818;SDS011;65772;51.096;17.006;2022-12-05T03:00:07;49.00;;;20.40;;
76818;SDS011;65772;51.096;17.006;2022-12-05T03:02:39;43.30;;;18.40;;
76818;SDS011;65772;51.096;17.006;2022-12-05T03:05:13;43.00;;;19.10;;
76818;SDS011;65772;51.096;17.006;2022-12-05T03:07:49;41.80;;;18.30;;
76818;SDS011;65772;51.096;17.006;2022-12-05T03:10:23;36.90;;;17.70;;
76818;SDS011;65772;51.096;17.006;2022-12-05T03:12:59;42.60;;;18.70;;
76818;SDS011;65772;51.096;17.006;2022-12-05T03:15:36;36.60;;;17.20;;
76818;SDS011;65772;51.096;17.006;2022-12-05T03:18:14;38.80;;;18.40;;
76818;SDS011;65772;51.096;17.006;2022-12-05T03:20:49;38.20;;;18.70;;
76818;SDS011;65772;51.096;17.006;2022-12-05T03:23:27;36.20;;;18.30;;
76818;SDS011;65772;51.096;17.006;2022-12-05T03:26:04;39.30;;;18.00;;
76818;SDS011;65772;51.096;17.006;2022-12-05T03:28:44;40.10;;;18.60;;
76818;SDS011;65772;51.096;17.006;2022-12-05T03:31:25;37.00;;;18.40;;
76818;SDS011;65772;51.096;17.006;2022-12-05T03:34:07;40.30;;;18.50;;
76818;SDS011;65772;51.096;17.006;2022-12-05T03:36:44;37.10;;;17.10;;
76818;SDS011;65772;51.096;17.006;2022-12-05T03:39:21;39.40;;;17.40;;
76818;SDS011;65772;51.096;17.006;2022-12-05T03:41:57;39.10;;;18.40;;
76818;SDS011;65772;51.096;17.006;2022-12-05T03:44:32;47.40;;;18.50;;
76818;SDS011;65772;51.096;17.006;2022-12-05T03:49:40;45.80;;;19.50;;
76818;SDS011;65772;51.096;17.006;2022-12-05T03:52:15;39.10;;;16.80;;
76818;SDS011;65772;51.096;17.006;2022-12-05T03:54:50;40.30;;;17.60;;
76818;SDS011;65772;51.096;17.006;2022-12-05T03:57:24;33.70;;;15.30;;
76818;SDS011;65772;51.096;17.006;2022-12-05T04:00:00;31.90;;;16.00;;
76818;SDS011;65772;51.096;17.006;2022-12-05T04:02:34;31.70;;;15.90;;
76818;SDS011;65772;51.096;17.006;2022-12-05T04:07:44;30.50;;;14.00;;
76818;SDS011;65772;51.096;17.006;2022-12-05T04:10:18;31.60;;;14.30;;
76818;SDS011;65772;51.096;17.006;2022-12-05T04:12:54;29.60;;;14.60;;
76818;SDS011;65772;51.096;17.006;2022-12-05T04:15:46;33.60;;;15.30;;
76818;SDS011;65772;51.096;17.006;2022-12-05T04:18:40;32.80;;;15.40;;
76818;SDS011;65772;51.096;17.006;2022-12-05T04:21:15;33.00;;;16.40;;
76818;SDS011;65772;51.096;17.006;2022-12-05T04:24:09;34.80;;;16.20;;
76818;SDS011;65772;51.096;17.006;2022-12-05T04:27:03;33.20;;;15.50;;
76818;SDS011;65772;51.096;17.006;2022-12-05T04:29:41;30.90;;;15.50;;
76818;SDS011;65772;51.096;17.006;2022-12-05T04:32:20;33.20;;;15.80;;
76818;SDS011;65772;51.096;17.006;2022-12-05T04:34:56;41.20;;;17.20;;
76818;SDS011;65772;51.096;17.006;2022-12-05T04:37:31;36.60;;;17.00;;
76818;SDS011;65772;51.096;17.006;2022-12-05T04:40:06;38.70;;;16.50;;
76818;SDS011;65772;51.096;17.006;2022-12-05T04:42:40;37.40;;;16.90;;
76818;SDS011;65772;51.096;17.006;2022-12-05T04:47:43;30.90;;;14.80;;
76818;SDS011;65772;51.096;17.006;2022-12-05T04:50:19;32.80;;;15.60;;
76818;SDS011;65772;51.096;17.006;2022-12-05T04:52:51;33.80;;;16.20;;
76818;SDS011;65772;51.096;17.006;2022-12-05T04:55:25;38.70;;;17.20;;
76818;SDS011;65772;51.096;17.006;2022-12-05T04:58:00;35.30;;;16.10;;
76818;SDS011;65772;51.096;17.006;2022-12-05T05:00:37;38.60;;;17.40;;
76818;SDS011;65772;51.096;17.006;2022-12-05T05:03:16;38.20;;;17.90;;
76818;SDS011;65772;51.096;17.006;2022-12-05T05:05:51;32.00;;;16.00;;
76818;SDS011;65772;51.096;17.006;2022-12-05T05:08:25;35.50;;;17.20;;
76818;SDS011;65772;51.096;17.006;2022-12-05T05:11:00;40.30;;;17.50;;
76818;SDS011;65772;51.096;17.006;2022-12-05T05:13:38;33.00;;;15.40;;
76818;SDS011;65772;51.096;17.006;2022-12-05T05:16:12;34.00;;;16.10;;
76818;SDS011;65772;51.096;17.006;2022-12-05T05:18:45;37.10;;;17.40;;
76818;SDS011;65772;51.096;17.006;2022-12-05T05:21:19;37.00;;;16.90;;
76818;SDS011;65772;51.096;17.006;2022-12-05T05:23:51;34.00;;;16.70;;
76818;SDS011;65772;51.096;17.006;2022-12-05T05:26:22;55.40;;;24.50;;
76818;SDS011;65772;51.096;17.006;2022-12-05T05:28:55;67.80;;;27.50;;
76818;SDS011;65772;51.096;17.006;2022-12-05T05:31:26;47.60;;;21.00;;
76818;SDS011;65772;51.096;17.006;2022-12-05T05:33:57;42.90;;;19.40;;
76818;SDS011;65772;51.096;17.006;2022-12-05T05:36:36;36.90;;;17.20;;
76818;SDS011;65772;51.096;17.006;2022-12-05T05:39:09;33.90;;;16.40;;
76818;SDS011;65772;51.096;17.006;2022-12-05T05:41:42;31.50;;;15.00;;
76818;SDS011;65772;51.096;17.006;2022-12-05T05:44:12;31.10;;;15.00;;
76818;SDS011;65772;51.096;17.006;2022-12-05T05:46:43;29.70;;;15.00;;
76818;SDS011;65772;51.096;17.006;2022-12-05T05:49:13;32.20;;;15.20;;
76818;SDS011;65772;51.096;17.006;2022-12-05T05:51:44;65.80;;;31.00;;
76818;SDS011;65772;51.096;17.006;2022-12-05T05:54:14;37.70;;;18.40;;
76818;SDS011;65772;51.096;17.006;2022-12-05T05:56:45;34.50;;;16.00;;
76818;SDS011;65772;51.096;17.006;2022-12-05T05:59:15;32.40;;;15.70;;
76818;SDS011;65772;51.096;17.006;2022-12-05T06:01:45;33.20;;;16.40;;
76818;SDS011;65772;51.096;17.006;2022-12-05T06:04:16;38.20;;;16.70;;
76818;SDS011;65772;51.096;17.006;2022-12-05T06:06:47;30.70;;;15.50;;
76818;SDS011;65772;51.096;17.006;2022-12-05T06:09:17;35.70;;;15.70;;
76818;SDS011;65772;51.096;17.006;2022-12-05T06:11:48;32.50;;;15.80;;
76818;SDS011;65772;51.096;17.006;2022-12-05T06:14:18;36.60;;;16.40;;
76818;SDS011;65772;51.096;17.006;2022-12-05T06:16:49;38.10;;;17.50;;
76818;SDS011;65772;51.096;17.006;2022-12-05T06:19:19;42.30;;;17.40;;
76818;SDS011;65772;51.096;17.006;2022-12-05T06:21:50;39.00;;;16.20;;
76818;SDS011;65772;51.096;17.006;2022-12-05T06:24:20;38.30;;;16.90;;
76818;SDS011;65772;51.096;17.006;2022-12-05T06:26:51;34.30;;;15.80;;
76818;SDS011;65772;51.096;17.006;2022-12-05T06:29:21;33.50;;;14.40;;
76818;SDS011;65772;51.096;17.006;2022-12-05T06:31:55;32.60;;;15.10;;
76818;SDS011;65772;51.096;17.006;2022-12-05T06:34:26;33.30;;;15.70;;
76818;SDS011;65772;51.096;17.006;2022-12-05T06:36:59;34.40;;;16.00;;
76818;SDS011;65772;51.096;17.006;2022-12-05T06:39:29;32.50;;;14.70;;
76818;SDS011;65772;51.096;17.006;2022-12-05T06:42:00;31.00;;;14.40;;
76818;SDS011;65772;51.096;17.006;2022-12-05T06:44:30;34.00;;;15.90;;
76818;SDS011;65772;51.096;17.006;2022-12-05T06:47:01;33.50;;;16.70;;
76818;SDS011;65772;51.096;17.006;2022-12-05T06:49:31;34.10;;;16.30;;
76818;SDS011;65772;51.096;17.006;2022-12-05T06:52:05;35.00;;;16.40;;
76818;SDS011;65772;51.096;17.006;2022-12-05T06:54:35;36.10;;;17.20;;
76818;SDS011;65772;51.096;17.006;2022-12-05T06:57:06;40.40;;;18.50;;
76818;SDS011;65772;51.096;17.006;2022-12-05T06:59:37;40.90;;;17.30;;
76818;SDS011;65772;51.096;17.006;2022-12-05T07:02:08;37.70;;;17.30;;
76818;SDS011;65772;51.096;17.006;2022-12-05T07:04:40;34.60;;;16.20;;
76818;SDS011;65772;51.096;17.006;2022-12-05T07:07:11;37.40;;;18.30;;
76818;SDS011;65772;51.096;17.006;2022-12-05T07:09:41;44.40;;;18.40;;
76818;SDS011;65772;51.096;17.006;2022-12-05T07:12:18;42.60;;;17.90;;
76818;SDS011;65772;51.096;17.006;2022-12-05T07:14:49;40.90;;;17.90;;
76818;SDS011;65772;51.096;17.006;2022-12-05T07:17:20;39.80;;;19.30;;
76818;SDS011;65772;51.096;17.006;2022-12-05T07:19:51;38.30;;;17.50;;
76818;SDS011;65772;51.096;17.006;2022-12-05T07:22:22;32.30;;;17.60;;
76818;SDS011;65772;51.096;17.006;2022-12-05T07:24:53;35.80;;;16.80;;
76818;SDS011;65772;51.096;17.006;2022-12-05T07:27:23;31.70;;;16.10;;
76818;SDS011;65772;51.096;17.006;2022-12-05T07:29:55;33.40;;;16.40;;
76818;SDS011;65772;51.096;17.006;2022-12-05T07:32:26;35.10;;;16.60;;
76818;SDS011;65772;51.096;17.006;2022-12-05T07:35:01;37.10;;;17.60;;
76818;SDS011;65772;51.096;17.006;2022-12-05T07:37:31;34.50;;;17.00;;
76818;SDS011;65772;51.096;17.006;2022-12-05T07:40:02;28.80;;;15.20;;
76818;SDS011;65772;51.096;17.006;2022-12-05T07:42:35;33.40;;;16.60;;
76818;SDS011;65772;51.096;17.006;2022-12-05T07:45:06;33.80;;;16.20;;
76818;SDS011;65772;51.096;17.006;2022-12-05T07:47:38;32.70;;;15.60;;
76818;SDS011;65772;51.096;17.006;2022-12-05T07:50:09;33.70;;;14.80;;
76818;SDS011;65772;51.096;17.006;2022-12-05T07:52:40;33.20;;;15.90;;
76818;SDS011;65772;51.096;17.006;2022-12-05T07:55:11;34.60;;;16.20;;
76818;SDS011;65772;51.096;17.006;2022-12-05T07:57:41;31.40;;;15.90;;
76818;SDS011;65772;51.096;17.006;2022-12-05T08:00:13;39.10;;;17.80;;
76818;SDS011;65772;51.096;17.006;2022-12-05T08:02:45;39.00;;;16.40;;
76818;SDS011;65772;51.096;17.006;2022-12-05T08:05:16;37.50;;;17.50;;
76818;SDS011;65772;51.096;17.006;2022-12-05T08:07:46;35.10;;;16.60;;
76818;SDS011;65772;51.096;17.006;2022-12-05T08:10:17;34.30;;;15.50;;
76818;SDS011;65772;51.096;17.006;2022-12-05T08:12:47;31.40;;;16.70;;
76818;SDS011;65772;51.096;17.006;2022-12-05T08:15:18;32.00;;;15.40;;
76818;SDS011;65772;51.096;17.006;2022-12-05T08:17:48;33.10;;;15.90;;
76818;SDS011;65772;51.096;17.006;2022-12-05T08:20:18;30.40;;;15.00;;
76818;SDS011;65772;51.096;17.006;2022-12-05T08:22:51;30.10;;;14.60;;
76818;SDS011;65772;51.096;17.006;2022-12-05T08:25:22;29.90;;;15.40;;
76818;SDS011;65772;51.096;17.006;2022-12-05T08:27:52;34.40;;;16.60;;
76818;SDS011;65772;51.096;17.006;2022-12-05T08:30:23;36.40;;;16.20;;
76818;SDS011;65772;51.096;17.006;2022-12-05T08:32:53;32.20;;;16.20;;
76818;SDS011;65772;51.096;17.006;2022-12-05T08:35:24;32.90;;;15.70;;
76818;SDS011;65772;51.096;17.006;2022-12-05T08:37:54;38.70;;;16.70;;
76818;SDS011;65772;51.096;17.006;2022-12-05T08:40:25;32.50;;;16.00;;
76818;SDS011;65772;51.096;17.006;2022-12-05T08:42:55;33.50;;;16.00;;
76818;SDS011;65772;51.096;17.006;2022-12-05T08:45:27;34.80;;;16.20;;
76818;SDS011;65772;51.096;17.006;2022-12-05T08:47:57;31.20;;;15.80;;
76818;SDS011;65772;51.096;17.006;2022-12-05T08:50:27;30.20;;;14.90;;
76818;SDS011;65772;51.096;17.006;2022-12-05T08:52:58;34.00;;;16.40;;
76818;SDS011;65772;51.096;17.006;2022-12-05T08:55:28;40.60;;;17.50;;
76818;SDS011;65772;51.096;17.006;2022-12-05T08:58:01;38.40;;;16.80;;
76818;SDS011;65772;51.096;17.006;2022-12-05T09:00:32;38.30;;;18.10;;
76818;SDS011;65772;51.096;17.006;2022-12-05T09:03:03;36.60;;;17.00;;
76818;SDS011;65772;51.096;17.006;2022-12-05T09:05:34;39.50;;;18.60;;
76818;SDS011;65772;51.096;17.006;2022-12-05T09:08:05;32.00;;;16.40;;
76818;SDS011;65772;51.096;17.006;2022-12-05T09:10:35;37.50;;;18.10;;
76818;SDS011;65772;51.096;17.006;2022-12-05T09:13:06;39.90;;;19.50;;
76818;SDS011;65772;51.096;17.006;2022-12-05T09:15:38;41.40;;;19.10;;
76818;SDS011;65772;51.096;17.006;2022-12-05T09:18:09;40.90;;;18.60;;
76818;SDS011;65772;51.096;17.006;2022-12-05T09:20:41;42.10;;;19.40;;
76818;SDS011;65772;51.096;17.006;2022-12-05T09:23:11;43.40;;;21.60;;
76818;SDS011;65772;51.096;17.006;2022-12-05T09:25:43;46.40;;;22.20;;
76818;SDS011;65772;51.096;17.006;2022-12-05T09:28:20;41.80;;;19.40;;
76818;SDS011;65772;51.096;17.006;2022-12-05T09:30:55;46.80;;;21.50;;
76818;SDS011;65772;51.096;17.006;2022-12-05T09:33:28;41.80;;;19.90;;
76818;SDS011;65772;51.096;17.006;2022-12-05T09:36:02;39.80;;;18.50;;
76818;SDS011;65772;51.096;17.006;2022-12-05T09:38:34;40.70;;;20.00;;
76818;SDS011;65772;51.096;17.006;2022-12-05T09:41:06;42.70;;;20.00;;
76818;SDS011;65772;51.096;17.006;2022-12-05T09:43:48;45.80;;;21.30;;
76818;SDS011;65772;51.096;17.006;2022-12-05T09:46:29;43.70;;;21.30;;
76818;SDS011;65772;51.096;17.006;2022-12-05T09:49:11;48.90;;;22.40;;
76818;SDS011;65772;51.096;17.006;2022-12-05T09:51:43;51.20;;;22.30;;
76818;SDS011;65772;51.096;17.006;2022-12-05T09:56:51;50.30;;;21.60;;
76818;SDS011;65772;51.096;17.006;2022-12-05T09:59:21;46.90;;;20.90;;
76818;SDS011;65772;51.096;17.006;2022-12-05T10:01:54;43.70;;;21.10;;
76818;SDS011;65772;51.096;17.006;2022-12-05T10:04:38;44.00;;;21.60;;
76818;SDS011;65772;51.096;17.006;2022-12-05T10:07:29;47.90;;;22.90;;
76818;SDS011;65772;51.096;17.006;2022-12-05T10:10:17;49.20;;;22.00;;
76818;SDS011;65772;51.096;17.006;2022-12-05T10:12:58;40.60;;;20.00;;
76818;SDS011;65772;51.096;17.006;2022-12-05T10:15:43;43.30;;;20.10;;
76818;SDS011;65772;51.096;17.006;2022-12-05T10:18:26;47.70;;;21.30;;
76818;SDS011;65772;51.096;17.006;2022-12-05T10:21:01;46.40;;;21.70;;
76818;SDS011;65772;51.096;17.006;2022-12-05T10:23:40;47.00;;;21.40;;
76818;SDS011;65772;51.096;17.006;2022-12-05T10:26:26;53.80;;;23.40;;
76818;SDS011;65772;51.096;17.006;2022-12-05T10:29:02;45.30;;;22.70;;
76818;SDS011;65772;51.096;17.006;2022-12-05T10:31:46;43.20;;;21.10;;
76818;SDS011;65772;51.096;17.006;2022-12-05T10:34:31;44.10;;;22.30;;
76818;SDS011;65772;51.096;17.006;2022-12-05T10:37:09;52.50;;;23.60;;
76818;SDS011;65772;51.096;17.006;2022-12-05T10:39:42;52.50;;;24.70;;
76818;SDS011;65772;51.096;17.006;2022-12-05T10:42:15;49.80;;;23.40;;
76818;SDS011;65772;51.096;17.006;2022-12-05T10:44:49;57.00;;;25.70;;
76818;SDS011;65772;51.096;17.006;2022-12-05T10:47:25;61.50;;;25.50;;
76818;SDS011;65772;51.096;17.006;2022-12-05T10:49:57;52.60;;;22.40;;
76818;SDS011;65772;51.096;17.006;2022-12-05T10:52:31;47.20;;;21.10;;
76818;SDS011;65772;51.096;17.006;2022-12-05T10:55:03;48.80;;;21.30;;
76818;SDS011;65772;51.096;17.006;2022-12-05T10:57:35;46.80;;;22.40;;
76818;SDS011;65772;51.096;17.006;2022-12-05T11:00:10;48.40;;;23.40;;
76818;SDS011;65772;51.096;17.006;2022-12-05T11:02:43;43.90;;;20.40;;
76818;SDS011;65772;51.096;17.006;2022-12-05T11:05:19;49.70;;;22.80;;
76818;SDS011;65772;51.096;17.006;2022-12-05T11:07:57;43.80;;;21.90;;
76818;SDS011;65772;51.096;17.006;2022-12-05T11:10:30;49.20;;;23.80;;
76818;SDS011;65772;51.096;17.006;2022-12-05T11:13:13;44.20;;;22.00;;
76818;SDS011;65772;51.096;17.006;2022-12-05T11:15:51;41.10;;;20.70;;
76818;SDS011;65772;51.096;17.006;2022-12-05T11:18:27;42.60;;;21.30;;
76818;SDS011;65772;51.096;17.006;2022-12-05T11:21:08;47.70;;;22.60;;
76818;SDS011;65772;51.096;17.006;2022-12-05T11:23:41;43.80;;;21.00;;
76818;SDS011;65772;51.096;17.006;2022-12-05T11:26:18;47.30;;;22.10;;
76818;SDS011;65772;51.096;17.006;2022-12-05T11:29:03;42.60;;;20.60;;
76818;SDS011;65772;51.096;17.006;2022-12-05T11:31:54;46.80;;;21.70;;
76818;SDS011;65772;51.096;17.006;2022-12-05T11:34:24;46.40;;;21.40;;
76818;SDS011;65772;51.096;17.006;2022-12-05T11:37:02;45.00;;;20.60;;
76818;SDS011;65772;51.096;17.006;2022-12-05T11:39:38;41.80;;;21.70;;
76818;SDS011;65772;51.096;17.006;2022-12-05T11:42:20;46.30;;;20.50;;
76818;SDS011;65772;51.096;17.006;2022-12-05T11:45:02;51.50;;;21.50;;
76818;SDS011;65772;51.096;17.006;2022-12-05T11:50:40;49.70;;;21.70;;
76818;SDS011;65772;51.096;17.006;2022-12-05T11:56:15;46.60;;;22.30;;
76818;SDS011;65772;51.096;17.006;2022-12-05T11:58:58;47.60;;;22.40;;
76818;SDS011;65772;51.096;17.006;2022-12-05T12:01:44;43.10;;;21.90;;
76818;SDS011;65772;51.096;17.006;2022-12-05T12:04:26;50.30;;;23.30;;
76818;SDS011;65772;51.096;17.006;2022-12-05T12:07:15;51.80;;;24.20;;
76818;SDS011;65772;51.096;17.006;2022-12-05T12:09:57;48.00;;;22.40;;
76818;SDS011;65772;51.096;17.006;2022-12-05T12:12:38;50.50;;;23.10;;
76818;SDS011;65772;51.096;17.006;2022-12-05T12:15:27;45.10;;;22.10;;
76818;SDS011;65772;51.096;17.006;2022-12-05T12:18:11;52.40;;;24.70;;
76818;SDS011;65772;51.096;17.006;2022-12-05T12:20:54;51.80;;;22.50;;
76818;SDS011;65772;51.096;17.006;2022-12-05T12:23:39;48.90;;;23.10;;
76818;SDS011;65772;51.096;17.006;2022-12-05T12:26:21;49.70;;;24.40;;
76818;SDS011;65772;51.096;17.006;2022-12-05T12:29:07;48.90;;;23.50;;
76818;SDS011;65772;51.096;17.006;2022-12-05T12:31:50;50.90;;;23.20;;
76818;SDS011;65772;51.096;17.006;2022-12-05T12:34:41;49.50;;;23.40;;
76818;SDS011;65772;51.096;17.006;2022-12-05T12:37:29;49.50;;;23.60;;
76818;SDS011;65772;51.096;17.006;2022-12-05T12:40:13;47.10;;;22.90;;
76818;SDS011;65772;51.096;17.006;2022-12-05T12:42:50;53.50;;;24.40;;
76818;SDS011;65772;51.096;17.006;2022-12-05T12:45:43;54.40;;;23.80;;
76818;SDS011;65772;51.096;17.006;2022-12-05T12:48:30;48.20;;;22.30;;
76818;SDS011;65772;51.096;17.006;2022-12-05T12:51:13;48.70;;;20.70;;
76818;SDS011;65772;51.096;17.006;2022-12-05T12:53:53;44.50;;;21.10;;
76818;SDS011;65772;51.096;17.006;2022-12-05T12:56:39;45.70;;;21.30;;
76818;SDS011;65772;51.096;17.006;2022-12-05T12:59:34;47.90;;;22.70;;
76818;SDS011;65772;51.096;17.006;2022-12-05T13:02:17;48.80;;;22.80;;
76818;SDS011;65772;51.096;17.006;2022-12-05T13:04:56;49.60;;;22.40;;
76818;SDS011;65772;51.096;17.006;2022-12-05T13:07:34;48.10;;;22.70;;
76818;SDS011;65772;51.096;17.006;2022-12-05T13:10:13;51.10;;;22.70;;
76818;SDS011;65772;51.096;17.006;2022-12-05T13:12:50;41.60;;;21.00;;
76818;SDS011;65772;51.096;17.006;2022-12-05T13:15:26;48.90;;;24.20;;
76818;SDS011;65772;51.096;17.006;2022-12-05T13:18:02;48.40;;;23.50;;
76818;SDS011;65772;51.096;17.006;2022-12-05T13:20:36;54.00;;;25.00;;
76818;SDS011;65772;51.096;17.006;2022-12-05T13:23:10;49.80;;;23.70;;
76818;SDS011;65772;51.096;17.006;2022-12-05T13:25:42;53.70;;;23.40;;
76818;SDS011;65772;51.096;17.006;2022-12-05T13:28:18;51.30;;;24.00;;
76818;SDS011;65772;51.096;17.006;2022-12-05T13:30:54;52.10;;;23.50;;
76818;SDS011;65772;51.096;17.006;2022-12-05T13:33:30;51.40;;;24.30;;
76818;SDS011;65772;51.096;17.006;2022-12-05T13:36:08;53.80;;;25.50;;
76818;SDS011;65772;51.096;17.006;2022-12-05T13:38:59;57.20;;;24.70;;
76818;SDS011;65772;51.096;17.006;2022-12-05T13:41:50;54.30;;;22.80;;
76818;SDS011;65772;51.096;17.006;2022-12-05T13:44:42;50.60;;;23.60;;
76818;SDS011;65772;51.096;17.006;2022-12-05T13:47:20;50.50;;;23.80;;
76818;SDS011;65772;51.096;17.006;2022-12-05T13:49:55;45.90;;;23.10;;
76818;SDS011;65772;51.096;17.006;2022-12-05T13:52:41;46.30;;;22.60;;
76818;SDS011;65772;51.096;17.006;2022-12-05T13:55:19;46.40;;;23.00;;
76818;SDS011;65772;51.096;17.006;2022-12-05T13:58:02;46.70;;;23.50;;
76818;SDS011;65772;51.096;17.006;2022-12-05T14:07:37;51.80;;;24.20;;
76818;SDS011;65772;51.096;17.006;2022-12-05T14:10:10;49.90;;;24.70;;
76818;SDS011;65772;51.096;17.006;2022-12-05T14:12:45;49.30;;;23.80;;
76818;SDS011;65772;51.096;17.006;2022-12-05T14:15:25;52.70;;;25.10;;
76818;SDS011;65772;51.096;17.006;2022-12-05T14:18:01;52.40;;;24.30;;
76818;SDS011;65772;51.096;17.006;2022-12-05T14:20:44;51.20;;;23.80;;
76818;SDS011;65772;51.096;17.006;2022-12-05T14:23:28;51.10;;;24.10;;
76818;SDS011;65772;51.096;17.006;2022-12-05T14:26:15;52.00;;;26.40;;
76818;SDS011;65772;51.096;17.006;2022-12-05T14:29:02;55.80;;;24.00;;
76818;SDS011;65772;51.096;17.006;2022-12-05T14:31:59;59.40;;;25.30;;
76818;SDS011;65772;51.096;17.006;2022-12-05T14:34:36;52.10;;;23.30;;
76818;SDS011;65772;51.096;17.006;2022-12-05T14:37:23;49.20;;;22.60;;
76818;SDS011;65772;51.096;17.006;2022-12-05T14:39:59;55.30;;;24.20;;
76818;SDS011;65772;51.096;17.006;2022-12-05T14:42:51;51.10;;;23.60;;
76818;SDS011;65772;51.096;17.006;2022-12-05T14:45:25;51.30;;;25.90;;
76818;SDS011;65772;51.096;17.006;2022-12-05T14:48:03;49.50;;;24.70;;
76818;SDS011;65772;51.096;17.006;2022-12-05T14:50:50;46.70;;;22.90;;
76818;SDS011;65772;51.096;17.006;2022-12-05T14:56:00;40.70;;;19.70;;
76818;SDS011;65772;51.096;17.006;2022-12-05T14:58:49;54.10;;;23.90;;
76818;SDS011;65772;51.096;17.006;2022-12-05T15:01:24;57.10;;;25.70;;
76818;SDS011;65772;51.096;17.006;2022-12-05T15:04:05;53.30;;;26.00;;
76818;SDS011;65772;51.096;17.006;2022-12-05T15:06:47;48.80;;;23.80;;
76818;SDS011;65772;51.096;17.006;2022-12-05T15:09:29;55.60;;;26.70;;
76818;SDS011;65772;51.096;17.006;2022-12-05T15:12:10;47.30;;;24.40;;
76818;SDS011;65772;51.096;17.006;2022-12-05T15:14:45;54.00;;;27.10;;
76818;SDS011;65772;51.096;17.006;2022-12-05T15:17:23;56.90;;;27.80;;
76818;SDS011;65772;51.096;17.006;2022-12-05T15:20:03;57.40;;;25.10;;
76818;SDS011;65772;51.096;17.006;2022-12-05T15:22:42;58.20;;;25.20;;
76818;SDS011;65772;51.096;17.006;2022-12-05T15:28:03;52.30;;;23.60;;